Time;durP1;ratioP1;P1;durP2;ratioP2;P2;SDS_P1;SDS_P2;PMS_P1;PMS_P2;Temp;Humidity;BMP_temperature;BMP_pressure;BME280_temperature;BME280_humidity;BME280_pressure;Samples;Min_cycle;Max_cycle;Signal;HPM_P1;HPM_P2
2022/01/17 00:00:00;;;;;;;341.52;132.02;;;;;;;;;;6322709;22;20022;-78
2022/01/17 00:02:28;;;;;;;325.95;129.10;;;;;;;;;;6320729;22;20007;-77
2022/01/17 00:04:54;;;;;;;302.50;124.43;;;;;;;;;;6318049;22;20025;-82
2022/01/17 00:07:26;;;;;;;321.00;131.25;;;;;;;;;;6320757;22;20017;-77
2022/01/17 00:09:54;;;;;;;335.52;133.10;;;;;;;;;;6321736;22;20031;-81
2022/01/17 00:12:20;;;;;;;303.25;128.13;;;;;;;;;;6320434;22;20116;-73
2022/01/17 00:14:47;;;;;;;306.50;134.63;;;;;;;;;;6326437;22;20010;-77
2022/01/17 00:19:42;;;;;;;326.23;127.28;;;;;;;;;;6338126;22;20034;-78
2022/01/17 00:22:09;;;;;;;307.02;123.60;;;;;;;;;;6327548;22;20007;-75
2022/01/17 00:24:35;;;;;;;307.13;134.30;;;;;;;;;;6324238;22;20010;-75
2022/01/17 00:27:01;;;;;;;266.50;127.47;;;;;;;;;;6327529;22;20011;-78
2022/01/17 00:29:29;;;;;;;341.27;139.60;;;;;;;;;;6324702;22;20017;-72
2022/01/17 00:31:56;;;;;;;400.08;139.63;;;;;;;;;;6325003;22;20074;-78
2022/01/17 00:34:22;;;;;;;346.35;138.52;;;;;;;;;;6328792;22;19999;-78
2022/01/17 00:36:48;;;;;;;310.73;130.77;;;;;;;;;;6327177;22;19983;-80
2022/01/17 00:39:15;;;;;;;288.67;128.25;;;;;;;;;;6320949;22;20003;-71
2022/01/17 00:41:41;;;;;;;343.05;135.27;;;;;;;;;;6323788;22;20004;-71
2022/01/17 00:44:07;;;;;;;420.80;143.23;;;;;;;;;;6319371;22;20425;-77
2022/01/17 00:46:33;;;;;;;357.40;132.48;;;;;;;;;;6321058;22;20034;-77
2022/01/17 00:49:00;;;;;;;348.38;137.93;;;;;;;;;;6321398;22;20006;-75
2022/01/17 00:51:26;;;;;;;319.85;126.35;;;;;;;;;;6318176;22;20054;-72
2022/01/17 00:53:52;;;;;;;396.63;147.15;;;;;;;;;;6321214;22;20011;-72
2022/01/17 00:56:22;;;;;;;305.60;130.57;;;;;;;;;;6325298;22;19979;-75
2022/01/17 00:58:49;;;;;;;466.30;145.43;;;;;;;;;;6325249;22;20003;-76
2022/01/17 01:01:28;;;;;;;498.50;145.57;;;;;;;;;;6308884;22;19999;-75
2022/01/17 01:03:54;;;;;;;373.30;139.32;;;;;;;;;;6312976;22;20003;-74
2022/01/17 01:06:22;;;;;;;369.13;133.95;;;;;;;;;;6315619;22;20015;-73
2022/01/17 01:08:52;;;;;;;445.08;141.05;;;;;;;;;;6311193;22;20028;-80
2022/01/17 01:11:18;;;;;;;339.98;127.15;;;;;;;;;;6315941;22;20423;-79
2022/01/17 01:13:45;;;;;;;364.70;121.97;;;;;;;;;;6311727;22;20023;-74
2022/01/17 01:16:24;;;;;;;334.48;123.95;;;;;;;;;;6312704;22;20038;-72
2022/01/17 01:29:47;;;;;;;423.98;121.07;;;;;;;;;;6227005;23;20084;-78
2022/01/17 01:32:18;;;;;;;415.92;125.53;;;;;;;;;;6217802;23;20078;-74
2022/01/17 01:34:49;;;;;;;315.52;120.93;;;;;;;;;;6216106;23;20063;-81
2022/01/17 01:37:16;;;;;;;271.05;118.20;;;;;;;;;;6193533;23;20052;-80
2022/01/17 01:39:47;;;;;;;260.02;125.32;;;;;;;;;;6214307;23;20104;-71
2022/01/17 01:42:16;;;;;;;268.63;124.95;;;;;;;;;;6214462;23;20430;-72
2022/01/17 01:44:42;;;;;;;252.85;119.15;;;;;;;;;;6215604;23;20004;-76
2022/01/17 01:47:08;;;;;;;256.65;119.53;;;;;;;;;;6215715;23;20040;-79
2022/01/17 01:49:34;;;;;;;244.45;116.82;;;;;;;;;;6215611;23;20007;-73
2022/01/17 01:52:03;;;;;;;223.65;115.68;;;;;;;;;;6222545;23;20011;-85
2022/01/17 01:54:32;;;;;;;214.27;107.80;;;;;;;;;;6191969;23;20446;-74
2022/01/17 01:56:58;;;;;;;191.93;98.75;;;;;;;;;;6215678;23;20009;-76
2022/01/17 01:59:30;;;;;;;191.63;97.82;;;;;;;;;;6286730;22;20018;-72
2022/01/17 02:01:56;;;;;;;173.73;88.82;;;;;;;;;;6310580;22;19999;-80
2022/01/17 02:04:22;;;;;;;126.97;67.07;;;;;;;;;;6283724;22;20375;-81
2022/01/17 02:06:48;;;;;;;119.47;66.53;;;;;;;;;;6309641;22;20011;-73
2022/01/17 02:09:14;;;;;;;116.07;64.68;;;;;;;;;;6310133;22;20023;-79
2022/01/17 02:11:43;;;;;;;116.43;63.22;;;;;;;;;;6319148;22;20305;-79
2022/01/17 02:14:12;;;;;;;98.53;53.92;;;;;;;;;;6283082;22;20003;-76
2022/01/17 02:16:40;;;;;;;83.25;50.15;;;;;;;;;;6285907;22;20015;-77
2022/01/17 02:19:06;;;;;;;93.25;52.08;;;;;;;;;;6315503;22;20329;-79
2022/01/17 02:21:45;;;;;;;89.68;51.45;;;;;;;;;;6316793;22;20007;-79
2022/01/17 02:24:14;;;;;;;93.65;53.03;;;;;;;;;;6293791;22;20003;-78
2022/01/17 02:26:44;;;;;;;126.68;68.68;;;;;;;;;;6296310;22;20098;-75
2022/01/17 02:29:10;;;;;;;102.53;56.78;;;;;;;;;;6323257;22;20006;-78
2022/01/17 02:31:37;;;;;;;92.85;55.22;;;;;;;;;;6324933;22;20007;-76
2022/01/17 02:34:03;;;;;;;94.68;53.88;;;;;;;;;;6326412;22;19996;-73
2022/01/17 02:36:40;;;;;;;88.13;53.67;;;;;;;;;;6328684;22;20000;-74
2022/01/17 02:39:08;;;;;;;81.45;49.58;;;;;;;;;;6307176;22;20011;-76
2022/01/17 02:41:35;;;;;;;86.15;52.05;;;;;;;;;;6268535;22;19989;-73
2022/01/17 02:44:11;;;;;;;85.85;50.10;;;;;;;;;;6262123;23;20051;-72
2022/01/17 02:46:37;;;;;;;86.70;47.92;;;;;;;;;;6242203;23;20450;-72
2022/01/17 02:49:05;;;;;;;82.43;48.08;;;;;;;;;;6269619;23;19996;-72
2022/01/17 02:51:31;;;;;;;76.40;44.90;;;;;;;;;;6264050;23;20039;-71
2022/01/17 02:53:57;;;;;;;75.82;44.25;;;;;;;;;;6265019;23;20067;-71
2022/01/17 02:56:26;;;;;;;76.55;44.85;;;;;;;;;;6266253;23;20016;-78
2022/01/17 02:58:53;;;;;;;76.80;46.20;;;;;;;;;;6240352;23;20008;-73
2022/01/17 03:01:22;;;;;;;76.00;45.95;;;;;;;;;;6264528;23;20015;-73
2022/01/17 03:04:09;;;;;;;65.40;39.70;;;;;;;;;;6273294;22;20008;-75
2022/01/17 03:06:39;;;;;;;66.63;40.08;;;;;;;;;;6257469;22;20466;-73
2022/01/17 03:09:06;;;;;;;70.43;42.97;;;;;;;;;;6268228;22;20008;-75
2022/01/17 03:11:32;;;;;;;66.15;40.88;;;;;;;;;;6271465;22;20008;-72
2022/01/17 03:14:00;;;;;;;52.83;32.72;;;;;;;;;;6323992;22;20026;-73
2022/01/17 03:16:32;;;;;;;50.45;30.48;;;;;;;;;;6331151;22;20018;-75
2022/01/17 03:19:34;;;;;;;50.72;29.13;;;;;;;;;;6332948;22;20007;-73
2022/01/17 03:22:05;;;;;;;46.70;28.80;;;;;;;;;;6330926;22;20329;-72
2022/01/17 03:24:31;;;;;;;43.03;26.70;;;;;;;;;;6330190;22;20000;-73
2022/01/17 03:26:57;;;;;;;45.53;27.95;;;;;;;;;;6328522;22;20012;-72
2022/01/17 03:29:23;;;;;;;44.42;26.98;;;;;;;;;;6329172;22;19987;-73
2022/01/17 03:32:21;;;;;;;44.53;26.58;;;;;;;;;;6332657;22;20308;-72
2022/01/17 03:34:49;;;;;;;40.80;25.15;;;;;;;;;;6297373;22;19991;-76
2022/01/17 03:37:26;;;;;;;43.97;25.35;;;;;;;;;;6337179;22;19987;-75
2022/01/17 03:39:53;;;;;;;44.10;27.13;;;;;;;;;;6332634;22;19984;-71
2022/01/17 03:42:29;;;;;;;44.15;26.33;;;;;;;;;;6321873;22;19986;-72
2022/01/17 03:44:55;;;;;;;38.22;24.00;;;;;;;;;;6301353;22;20011;-73
2022/01/17 03:47:21;;;;;;;40.03;22.75;;;;;;;;;;6320657;22;20011;-78
2022/01/17 03:49:47;;;;;;;39.22;22.50;;;;;;;;;;6297568;22;20041;-76
2022/01/17 03:52:13;;;;;;;37.42;23.48;;;;;;;;;;6323176;22;20371;-75
2022/01/17 03:54:39;;;;;;;41.65;27.73;;;;;;;;;;6328255;22;20014;-73
2022/01/17 03:57:22;;;;;;;43.90;26.55;;;;;;;;;;6336180;22;20008;-78
2022/01/17 03:59:50;;;;;;;37.80;23.02;;;;;;;;;;6232289;22;20031;-77
2022/01/17 04:02:16;;;;;;;31.10;20.05;;;;;;;;;;6327989;22;20533;-74
2022/01/17 04:04:44;;;;;;;28.75;18.98;;;;;;;;;;6327234;22;20022;-72
2022/01/17 04:07:10;;;;;;;34.63;20.88;;;;;;;;;;6306382;22;20011;-78
2022/01/17 04:09:38;;;;;;;35.70;20.23;;;;;;;;;;6326420;22;20010;-79
2022/01/17 04:12:06;;;;;;;29.10;19.13;;;;;;;;;;6333804;22;19995;-72
2022/01/17 04:14:38;;;;;;;29.80;19.35;;;;;;;;;;6330639;22;20007;-73
2022/01/17 04:17:06;;;;;;;27.90;18.20;;;;;;;;;;6329706;22;19992;-72
2022/01/17 04:19:33;;;;;;;34.50;20.65;;;;;;;;;;6330264;22;20074;-75
2022/01/17 04:21:59;;;;;;;29.27;19.70;;;;;;;;;;6327491;22;20015;-72
2022/01/17 04:24:25;;;;;;;31.52;20.67;;;;;;;;;;6330007;22;20013;-72
2022/01/17 04:26:51;;;;;;;31.55;20.13;;;;;;;;;;6326269;22;20098;-71
2022/01/17 04:29:20;;;;;;;32.75;19.15;;;;;;;;;;6328926;22;19996;-79
2022/01/17 04:31:47;;;;;;;35.47;20.65;;;;;;;;;;6303483;22;20003;-72
2022/01/17 04:34:13;;;;;;;30.30;19.17;;;;;;;;;;6327050;22;20004;-73
2022/01/17 04:36:39;;;;;;;29.35;18.77;;;;;;;;;;6328772;22;20026;-72
2022/01/17 04:39:05;;;;;;;28.27;19.40;;;;;;;;;;6331108;22;20007;-74
2022/01/17 04:41:40;;;;;;;30.10;18.02;;;;;;;;;;6306052;22;20008;-72
2022/01/17 04:46:51;;;;;;;28.80;20.15;;;;;;;;;;6328439;22;20050;-72
2022/01/17 04:49:17;;;;;;;26.77;18.20;;;;;;;;;;6319501;22;20007;-77
2022/01/17 04:51:45;;;;;;;27.45;18.20;;;;;;;;;;6325770;22;20034;-73
2022/01/17 04:54:51;;;;;;;26.05;17.20;;;;;;;;;;6328167;22;20003;-76
2022/01/17 04:57:03;;;;;;;27.63;17.15;;;;;;;;;;6324379;22;20089;-77
2022/01/17 04:59:32;;;;;;;26.83;17.58;;;;;;;;;;6330459;22;20003;-71
2022/01/17 05:01:59;;;;;;;26.77;18.10;;;;;;;;;;6303173;22;20055;-77
2022/01/17 05:04:26;;;;;;;28.38;18.02;;;;;;;;;;6329936;22;20057;-74
2022/01/17 05:06:52;;;;;;;27.65;18.50;;;;;;;;;;6322492;22;20021;-73
2022/01/17 05:09:18;;;;;;;30.13;18.95;;;;;;;;;;6331241;22;20037;-74
2022/01/17 05:11:44;;;;;;;28.17;17.60;;;;;;;;;;6331435;22;20025;-74
2022/01/17 05:14:13;;;;;;;25.50;17.42;;;;;;;;;;6330747;22;19991;-77
2022/01/17 05:17:10;;;;;;;37.78;23.10;;;;;;;;;;6269107;22;20007;-71
2022/01/17 05:19:48;;;;;;;44.67;29.70;;;;;;;;;;6267692;23;19993;-71
2022/01/17 05:22:15;;;;;;;42.63;30.08;;;;;;;;;;6270342;23;19999;-72
2022/01/17 05:24:49;;;;;;;34.22;22.52;;;;;;;;;;6263873;23;20000;-79
2022/01/17 05:27:35;;;;;;;27.50;18.55;;;;;;;;;;6259873;23;20473;-74
2022/01/17 05:30:21;;;;;;;31.42;21.15;;;;;;;;;;6267994;23;20023;-78
2022/01/17 05:33:02;;;;;;;31.58;20.75;;;;;;;;;;6268252;23;19997;-72
2022/01/17 05:35:28;;;;;;;32.53;19.63;;;;;;;;;;6264747;23;20055;-76
2022/01/17 05:37:54;;;;;;;33.95;21.85;;;;;;;;;;6266896;23;19988;-71
2022/01/17 05:40:21;;;;;;;33.67;20.75;;;;;;;;;;6271014;22;20344;-79
2022/01/17 05:42:47;;;;;;;33.63;21.83;;;;;;;;;;6267571;23;20018;-78
2022/01/17 05:45:14;;;;;;;41.20;23.60;;;;;;;;;;6267394;23;20008;-70
2022/01/17 05:47:40;;;;;;;39.58;22.55;;;;;;;;;;6292309;22;19999;-77
2022/01/17 05:50:07;;;;;;;35.00;20.20;;;;;;;;;;6334523;22;20004;-78
2022/01/17 05:52:34;;;;;;;28.48;19.13;;;;;;;;;;6332695;22;19986;-74
2022/01/17 05:55:02;;;;;;;28.33;16.75;;;;;;;;;;6332054;22;20005;-79
2022/01/17 05:57:28;;;;;;;26.27;17.10;;;;;;;;;;6332446;22;20000;-79
2022/01/17 05:59:54;;;;;;;25.05;16.20;;;;;;;;;;6332784;22;20003;-78
2022/01/17 06:02:20;;;;;;;24.08;16.42;;;;;;;;;;6309912;22;20004;-78
2022/01/17 06:04:46;;;;;;;24.58;16.33;;;;;;;;;;6277765;22;20015;-78
2022/01/17 06:07:12;;;;;;;24.92;15.38;;;;;;;;;;6278670;22;20019;-78
2022/01/17 06:09:44;;;;;;;23.88;14.32;;;;;;;;;;6277119;22;20011;-79
2022/01/17 06:12:50;;;;;;;24.88;16.50;;;;;;;;;;6240704;22;20087;-77
2022/01/17 06:15:18;;;;;;;30.05;17.92;;;;;;;;;;6242975;22;20031;-71
2022/01/17 06:18:09;;;;;;;26.48;15.73;;;;;;;;;;6243173;22;19989;-71
2022/01/17 06:20:44;;;;;;;24.30;15.68;;;;;;;;;;6235791;22;19996;-73
2022/01/17 06:23:35;;;;;;;25.67;15.52;;;;;;;;;;6239854;23;20004;-78
2022/01/17 06:26:14;;;;;;;25.90;16.58;;;;;;;;;;6242686;22;20005;-74
2022/01/17 06:28:52;;;;;;;25.20;15.90;;;;;;;;;;6239397;22;20005;-72
2022/01/17 06:31:18;;;;;;;29.85;16.15;;;;;;;;;;6226226;22;20013;-78
2022/01/17 06:33:44;;;;;;;26.45;17.25;;;;;;;;;;6229549;23;19992;-76
2022/01/17 06:39:00;;;;;;;27.42;16.92;;;;;;;;;;6239444;22;20112;-76
2022/01/17 06:41:27;;;;;;;24.17;15.93;;;;;;;;;;6229516;22;20016;-75
2022/01/17 06:43:53;;;;;;;26.75;16.08;;;;;;;;;;6289183;22;20000;-77
2022/01/17 06:46:19;;;;;;;25.05;16.15;;;;;;;;;;6262843;22;20067;-73
2022/01/17 06:48:46;;;;;;;42.60;26.48;;;;;;;;;;6300305;22;20008;-73
2022/01/17 06:51:15;;;;;;;143.40;68.75;;;;;;;;;;6292278;22;20004;-76
2022/01/17 06:53:42;;;;;;;168.50;68.28;;;;;;;;;;6276178;22;20011;-76
2022/01/17 06:56:08;;;;;;;270.42;105.22;;;;;;;;;;6292311;22;20004;-75
2022/01/17 06:58:36;;;;;;;129.35;60.40;;;;;;;;;;6266727;22;20038;-75
2022/01/17 07:01:04;;;;;;;91.03;45.83;;;;;;;;;;6304713;22;20003;-78
2022/01/17 07:03:30;;;;;;;209.70;100.03;;;;;;;;;;6320231;22;20010;-77
2022/01/17 07:05:57;;;;;;;90.47;49.78;;;;;;;;;;6317615;22;20076;-76
2022/01/17 07:08:23;;;;;;;62.08;37.97;;;;;;;;;;6314668;22;20007;-77
2022/01/17 07:13:37;;;;;;;77.85;46.45;;;;;;;;;;6325154;22;20045;-77
2022/01/17 07:16:07;;;;;;;41.13;27.40;;;;;;;;;;6295766;22;20036;-75
2022/01/17 07:18:39;;;;;;;42.10;27.48;;;;;;;;;;6328585;22;20008;-77
2022/01/17 07:21:05;;;;;;;29.77;19.67;;;;;;;;;;6327164;22;20005;-74
2022/01/17 07:23:31;;;;;;;28.23;19.40;;;;;;;;;;6327617;22;20064;-76
2022/01/17 07:25:57;;;;;;;27.10;19.00;;;;;;;;;;6298646;22;20078;-75
2022/01/17 07:28:23;;;;;;;27.67;18.17;;;;;;;;;;6326604;22;20011;-74
2022/01/17 07:30:56;;;;;;;28.58;19.70;;;;;;;;;;6326378;22;19995;-74
2022/01/17 07:33:28;;;;;;;33.97;22.27;;;;;;;;;;6330467;22;20066;-75
2022/01/17 07:35:55;;;;;;;32.35;21.83;;;;;;;;;;6324504;22;20310;-75
2022/01/17 07:38:21;;;;;;;32.55;21.98;;;;;;;;;;6296958;22;20003;-75
2022/01/17 07:40:50;;;;;;;31.85;21.17;;;;;;;;;;6320538;22;20035;-73
2022/01/17 07:43:28;;;;;;;29.13;19.67;;;;;;;;;;6295075;22;20023;-77
2022/01/17 07:46:07;;;;;;;26.15;17.98;;;;;;;;;;6322512;22;20002;-75
2022/01/17 07:51:25;;;;;;;29.25;18.65;;;;;;;;;;6225011;23;20123;-76
2022/01/17 07:53:54;;;;;;;27.30;17.52;;;;;;;;;;6227165;23;19985;-78
2022/01/17 07:56:21;;;;;;;25.85;16.98;;;;;;;;;;6229826;23;20009;-76
2022/01/17 07:58:50;;;;;;;30.13;17.38;;;;;;;;;;6196748;23;20018;-74
2022/01/17 08:01:20;;;;;;;27.02;17.85;;;;;;;;;;6227760;23;20083;-77
2022/01/17 08:03:46;;;;;;;25.33;18.40;;;;;;;;;;6224479;23;20035;-75
2022/01/17 08:06:23;;;;;;;23.17;16.20;;;;;;;;;;6232688;22;19991;-76
2022/01/17 08:09:38;;;;;;;21.05;15.40;;;;;;;;;;6139593;23;20013;-76
2022/01/17 08:12:14;;;;;;;23.40;16.52;;;;;;;;;;6081516;23;20011;-73
2022/01/17 08:14:41;;;;;;;25.42;15.80;;;;;;;;;;6086177;23;20007;-75
2022/01/17 08:19:58;;;;;;;20.15;14.60;;;;;;;;;;6058290;23;20017;-75
2022/01/17 08:22:52;;;;;;;19.92;15.25;;;;;;;;;;6061757;23;19996;-75
2022/01/17 08:25:21;;;;;;;20.95;14.88;;;;;;;;;;6007524;23;20032;-71
2022/01/17 08:28:15;;;;;;;23.10;15.43;;;;;;;;;;6008244;23;20032;-75
2022/01/17 08:30:45;;;;;;;;;;;;;;;;;;6005312;23;20016;-72
2022/01/17 08:33:16;;;;;;;20.02;13.65;;;;;;;;;;5981190;24;19910;-71
2022/01/17 08:35:57;;;;;;;18.75;13.63;;;;;;;;;;6001053;24;20000;-73
2022/01/17 08:38:32;;;;;;;17.25;12.65;;;;;;;;;;5971367;24;20008;-70
2022/01/17 08:41:00;;;;;;;20.90;13.98;;;;;;;;;;5980119;24;19998;-75
2022/01/17 08:43:27;;;;;;;23.25;15.05;;;;;;;;;;5961366;24;20024;-77
2022/01/17 08:45:56;;;;;;;20.83;14.88;;;;;;;;;;5993413;23;20037;-76
2022/01/17 08:48:24;;;;;;;29.15;18.67;;;;;;;;;;6100950;23;20034;-76
2022/01/17 08:50:51;;;;;;;27.33;18.33;;;;;;;;;;6140893;23;20031;-77
2022/01/17 08:53:50;;;;;;;25.70;16.75;;;;;;;;;;6210437;23;19997;-78
2022/01/17 08:56:42;;;;;;;24.25;16.88;;;;;;;;;;6112561;23;20018;-75
2022/01/17 08:59:22;;;;;;;23.27;15.77;;;;;;;;;;6116160;23;20006;-76
2022/01/17 09:01:51;;;;;;;22.65;15.05;;;;;;;;;;6118765;23;20113;-75
2022/01/17 09:04:19;;;;;;;21.13;15.02;;;;;;;;;;6200831;23;20032;-77
2022/01/17 09:06:48;;;;;;;17.20;13.60;;;;;;;;;;6195795;23;20024;-77
2022/01/17 09:09:16;;;;;;;17.15;11.75;;;;;;;;;;6161460;23;20021;-76
2022/01/17 09:11:42;;;;;;;17.25;12.48;;;;;;;;;;6190833;23;20032;-76
2022/01/17 09:14:09;;;;;;;19.58;13.38;;;;;;;;;;6164940;23;20064;-75
2022/01/17 09:16:35;;;;;;;17.80;12.43;;;;;;;;;;6191475;23;20005;-78
2022/01/17 09:19:07;;;;;;;18.83;12.82;;;;;;;;;;6173458;23;20009;-77
2022/01/17 09:21:34;;;;;;;22.02;15.05;;;;;;;;;;6199432;23;20047;-76
2022/01/17 09:24:00;;;;;;;19.00;12.85;;;;;;;;;;6190153;23;20009;-76
2022/01/17 09:26:27;;;;;;;21.08;13.27;;;;;;;;;;6219059;22;20018;-77
2022/01/17 09:28:54;;;;;;;19.17;12.40;;;;;;;;;;6320707;22;19998;-77
2022/01/17 09:31:20;;;;;;;17.23;11.05;;;;;;;;;;6298490;22;19999;-78
2022/01/17 09:33:46;;;;;;;18.40;12.95;;;;;;;;;;6293023;22;20006;-78
2022/01/17 09:36:13;;;;;;;18.92;12.18;;;;;;;;;;6300039;22;20430;-77
2022/01/17 09:38:39;;;;;;;17.95;12.68;;;;;;;;;;6293328;22;20000;-76
2022/01/17 09:41:05;;;;;;;18.30;11.73;;;;;;;;;;6291405;22;20033;-78
2022/01/17 09:43:31;;;;;;;17.35;11.55;;;;;;;;;;6293681;22;20018;-77
2022/01/17 09:45:57;;;;;;;16.35;11.82;;;;;;;;;;6290662;22;20011;-78
2022/01/17 09:48:34;;;;;;;16.42;11.43;;;;;;;;;;6294742;22;20011;-78
2022/01/17 09:51:04;;;;;;;19.70;12.55;;;;;;;;;;6286797;22;20007;-78
2022/01/17 09:53:34;;;;;;;16.73;12.00;;;;;;;;;;6284441;22;20004;-78
2022/01/17 09:56:03;;;;;;;26.27;16.05;;;;;;;;;;6293010;22;20006;-78
2022/01/17 09:58:30;;;;;;;31.55;19.73;;;;;;;;;;6287226;22;20146;-78
2022/01/17 10:00:56;;;;;;;31.25;19.67;;;;;;;;;;6280388;22;20007;-74
2022/01/17 10:03:23;;;;;;;23.95;15.48;;;;;;;;;;6281186;22;20408;-74
2022/01/17 10:05:49;;;;;;;22.23;11.85;;;;;;;;;;6279699;22;19999;-76
2022/01/17 10:08:19;;;;;;;18.65;11.75;;;;;;;;;;6281757;22;20014;-77
2022/01/17 10:10:48;;;;;;;40.90;22.58;;;;;;;;;;6278565;22;20043;-77
2022/01/17 10:13:14;;;;;;;19.70;11.23;;;;;;;;;;6282441;22;20338;-74
2022/01/17 10:15:55;;;;;;;21.83;11.88;;;;;;;;;;6291744;22;20004;-73
2022/01/17 10:18:35;;;;;;;18.13;10.25;;;;;;;;;;6295248;22;20029;-75
2022/01/17 10:21:15;;;;;;;12.75;9.30;;;;;;;;;;6283708;22;20007;-73
2022/01/17 10:24:25;;;;;;;16.20;9.10;;;;;;;;;;6285806;22;20008;-79
2022/01/17 10:35:22;;;;;;;21.30;10.73;;;;;;;;;;6301596;22;20092;-78
2022/01/17 10:38:10;;;;;;;14.98;10.70;;;;;;;;;;6249016;22;20004;-77
2022/01/17 10:40:42;;;;;;;20.33;11.20;;;;;;;;;;6293893;22;20012;-77
2022/01/17 10:43:19;;;;;;;19.58;12.10;;;;;;;;;;6278075;22;20030;-78
2022/01/17 10:45:57;;;;;;;17.05;11.40;;;;;;;;;;6297420;22;19996;-77
2022/01/17 10:48:53;;;;;;;13.40;9.38;;;;;;;;;;6298252;22;20024;-73
2022/01/17 10:51:27;;;;;;;20.65;11.63;;;;;;;;;;6290692;22;20000;-74
2022/01/17 10:53:55;;;;;;;15.30;10.80;;;;;;;;;;6286051;22;20015;-76
2022/01/17 10:56:24;;;;;;;33.75;20.08;;;;;;;;;;6285044;22;20043;-76
2022/01/17 10:59:00;;;;;;;15.52;9.40;;;;;;;;;;6277141;22;19996;-75
2022/01/17 11:01:35;;;;;;;16.38;9.25;;;;;;;;;;6276750;22;20061;-73
2022/01/17 11:04:03;;;;;;;15.05;10.48;;;;;;;;;;6279948;22;19996;-74
2022/01/17 11:06:29;;;;;;;18.70;10.50;;;;;;;;;;6279644;22;20004;-78
2022/01/17 11:09:07;;;;;;;12.93;9.15;;;;;;;;;;6289372;22;20018;-76
2022/01/17 11:11:38;;;;;;;15.90;9.13;;;;;;;;;;6283010;22;20363;-77
2022/01/17 11:14:07;;;;;;;15.15;8.27;;;;;;;;;;6281509;22;20008;-74
2022/01/17 11:16:36;;;;;;;11.98;8.25;;;;;;;;;;6285351;22;20035;-75
2022/01/17 11:20:02;;;;;;;10.68;7.97;;;;;;;;;;6288252;22;20027;-74
2022/01/17 11:22:01;;;;;;;17.60;8.93;;;;;;;;;;6289106;22;20004;-77
2022/01/17 11:24:27;;;;;;;17.27;8.15;;;;;;;;;;6290004;22;20333;-74
2022/01/17 11:27:07;;;;;;;15.57;8.32;;;;;;;;;;6298993;22;19991;-78
2022/01/17 11:29:38;;;;;;;12.27;8.68;;;;;;;;;;6242389;22;20079;-79
2022/01/17 11:32:04;;;;;;;24.27;15.00;;;;;;;;;;6294493;22;20004;-76
2022/01/17 11:34:30;;;;;;;17.02;10.70;;;;;;;;;;6290705;22;20030;-77
2022/01/17 11:36:56;;;;;;;14.43;9.35;;;;;;;;;;6289292;22;20000;-76
2022/01/17 11:39:23;;;;;;;14.68;7.70;;;;;;;;;;6281330;22;20404;-75
2022/01/17 11:41:49;;;;;;;12.60;6.65;;;;;;;;;;6286750;22;20011;-77
2022/01/17 11:44:18;;;;;;;21.33;7.60;;;;;;;;;;6287638;22;20059;-77
2022/01/17 11:46:52;;;;;;;12.90;6.35;;;;;;;;;;6289553;22;20023;-76
2022/01/17 11:49:26;;;;;;;15.52;7.32;;;;;;;;;;6288541;22;20027;-76
2022/01/17 11:51:53;;;;;;;28.65;10.60;;;;;;;;;;6293727;22;20008;-79
2022/01/17 11:54:26;;;;;;;19.50;8.32;;;;;;;;;;6291200;22;20397;-79
2022/01/17 11:57:02;;;;;;;16.13;8.00;;;;;;;;;;6290878;22;20012;-78
2022/01/17 11:59:48;;;;;;;13.43;7.95;;;;;;;;;;6295238;22;20154;-78
2022/01/17 12:02:19;;;;;;;19.65;9.10;;;;;;;;;;6298149;22;20011;-77
2022/01/17 12:05:03;;;;;;;16.23;10.10;;;;;;;;;;6288395;22;20003;-75
2022/01/17 12:07:43;;;;;;;29.50;14.20;;;;;;;;;;6281505;22;20004;-76
2022/01/17 12:10:09;;;;;;;28.75;14.80;;;;;;;;;;6280468;22;20012;-78
2022/01/17 12:12:36;;;;;;;65.88;32.50;;;;;;;;;;6284250;22;20006;-77
2022/01/17 12:15:26;;;;;;;45.03;24.17;;;;;;;;;;6293995;22;20000;-79
2022/01/17 12:18:22;;;;;;;27.02;14.63;;;;;;;;;;6300315;22;20012;-77
2022/01/17 12:20:51;;;;;;;22.92;13.32;;;;;;;;;;6279069;22;20027;-78
2022/01/17 12:23:26;;;;;;;20.88;11.45;;;;;;;;;;6290497;22;20006;-77
2022/01/17 12:26:19;;;;;;;18.60;11.65;;;;;;;;;;6290918;22;19999;-76
2022/01/17 12:28:55;;;;;;;21.98;12.77;;;;;;;;;;6289255;22;20016;-74
2022/01/17 12:31:39;;;;;;;22.23;12.30;;;;;;;;;;6260928;22;20019;-74
2022/01/17 12:34:23;;;;;;;23.98;12.13;;;;;;;;;;6292523;22;20000;-75
2022/01/17 12:36:54;;;;;;;21.67;10.90;;;;;;;;;;6298003;22;20008;-77
2022/01/17 12:39:24;;;;;;;16.38;9.55;;;;;;;;;;6292465;22;20007;-74
2022/01/17 12:42:03;;;;;;;18.52;10.20;;;;;;;;;;6289396;22;20012;-74
2022/01/17 12:44:30;;;;;;;16.85;10.77;;;;;;;;;;6289502;22;20003;-76
2022/01/17 12:46:59;;;;;;;14.63;9.65;;;;;;;;;;6285281;22;20475;-73
2022/01/17 12:49:32;;;;;;;15.45;9.18;;;;;;;;;;6284247;22;20019;-77
2022/01/17 12:51:59;;;;;;;11.77;7.00;;;;;;;;;;6286230;22;20003;-74
2022/01/17 12:54:30;;;;;;;10.52;8.13;;;;;;;;;;6289541;22;20004;-77
2022/01/17 12:56:57;;;;;;;12.77;8.30;;;;;;;;;;6283465;22;20026;-72
2022/01/17 12:59:24;;;;;;;12.75;7.90;;;;;;;;;;6280493;22;20007;-74
2022/01/17 13:01:57;;;;;;;13.27;6.85;;;;;;;;;;6283019;22;20011;-75
2022/01/17 13:04:24;;;;;;;13.63;7.93;;;;;;;;;;6283721;22;20019;-76
2022/01/17 13:06:56;;;;;;;13.45;7.68;;;;;;;;;;6286561;22;20006;-76
2022/01/17 13:09:24;;;;;;;15.68;8.32;;;;;;;;;;6287849;22;20015;-75
2022/01/17 13:11:53;;;;;;;12.95;8.20;;;;;;;;;;6284941;22;20007;-76
2022/01/17 13:14:21;;;;;;;12.75;8.25;;;;;;;;;;6289959;22;20004;-76
2022/01/17 13:16:50;;;;;;;22.80;9.38;;;;;;;;;;6292312;22;19994;-75
2022/01/17 13:19:16;;;;;;;12.82;7.95;;;;;;;;;;6289734;22;19988;-76
2022/01/17 13:21:44;;;;;;;13.60;8.13;;;;;;;;;;6296345;22;19983;-76
2022/01/17 13:24:16;;;;;;;14.75;7.38;;;;;;;;;;6293157;22;20003;-75
2022/01/17 13:26:49;;;;;;;12.65;7.35;;;;;;;;;;6298493;22;19976;-77
2022/01/17 13:29:16;;;;;;;20.50;13.43;;;;;;;;;;6293846;22;20065;-76
2022/01/17 13:31:44;;;;;;;17.23;13.10;;;;;;;;;;6292717;22;20006;-76
2022/01/17 13:34:20;;;;;;;24.77;15.57;;;;;;;;;;6266420;22;19988;-77
2022/01/17 13:36:48;;;;;;;15.52;9.68;;;;;;;;;;6291532;22;19996;-79
2022/01/17 13:39:22;;;;;;;19.63;12.27;;;;;;;;;;6292677;22;19999;-74
2022/01/17 13:41:55;;;;;;;26.75;14.63;;;;;;;;;;6301324;22;19999;-77
2022/01/17 13:44:33;;;;;;;56.28;24.92;;;;;;;;;;6300266;22;20007;-75
2022/01/17 13:47:32;;;;;;;27.92;14.80;;;;;;;;;;6321043;22;19999;-77
2022/01/17 13:50:31;;;;;;;11.23;8.10;;;;;;;;;;6321089;22;20557;-76
2022/01/17 13:52:57;;;;;;;13.98;8.13;;;;;;;;;;6297025;22;20003;-76
2022/01/17 13:55:28;;;;;;;14.18;9.68;;;;;;;;;;6295023;22;20000;-77
2022/01/17 13:58:02;;;;;;;12.18;8.38;;;;;;;;;;6297727;22;20003;-77
2022/01/17 14:00:28;;;;;;;;;;;;;;;;;;6321631;22;19999;-77
2022/01/17 14:03:00;;;;;;;23.90;13.68;;;;;;;;;;6300344;22;19925;-77
2022/01/17 14:05:31;;;;;;;22.23;14.15;;;;;;;;;;6327123;22;19999;-79
2022/01/17 14:08:11;;;;;;;16.33;9.38;;;;;;;;;;6298622;22;20349;-77
2022/01/17 14:10:46;;;;;;;20.17;10.00;;;;;;;;;;6302542;22;19987;-78
2022/01/17 14:13:32;;;;;;;13.93;8.93;;;;;;;;;;6325522;22;20046;-79
2022/01/17 14:16:38;;;;;;;15.35;7.63;;;;;;;;;;6301956;22;20009;-76
2022/01/17 14:22:08;;;;;;;15.10;9.57;;;;;;;;;;6276175;22;20106;-78
2022/01/17 14:24:38;;;;;;;19.70;9.50;;;;;;;;;;6289353;22;20007;-74
2022/01/17 14:27:18;;;;;;;22.67;12.13;;;;;;;;;;6291803;22;20004;-72
2022/01/17 14:29:55;;;;;;;16.08;9.65;;;;;;;;;;6237150;22;20031;-76
2022/01/17 14:32:22;;;;;;;15.77;9.88;;;;;;;;;;6290104;22;20004;-76
2022/01/17 14:34:51;;;;;;;11.93;7.50;;;;;;;;;;6291007;22;20010;-75
2022/01/17 14:37:21;;;;;;;15.52;9.27;;;;;;;;;;6291238;22;19996;-74
2022/01/17 14:40:01;;;;;;;15.15;7.93;;;;;;;;;;6291556;22;20000;-76
2022/01/17 14:42:37;;;;;;;14.57;8.05;;;;;;;;;;6289894;22;20389;-77
2022/01/17 14:45:09;;;;;;;12.25;7.80;;;;;;;;;;6282697;22;20004;-76
2022/01/17 14:52:48;;;;;;;15.23;8.32;;;;;;;;;;6248851;22;20035;-77
2022/01/17 15:01:00;;;;;;;20.55;10.52;;;;;;;;;;6306195;22;20068;-77
2022/01/17 15:03:59;;;;;;;15.10;8.65;;;;;;;;;;6325127;22;20002;-73
2022/01/17 15:06:29;;;;;;;18.00;10.57;;;;;;;;;;6138035;23;20397;-77
2022/01/17 15:12:06;;;;;;;16.35;9.57;;;;;;;;;;6291809;22;20027;-80
2022/01/17 15:14:40;;;;;;;20.27;9.77;;;;;;;;;;6288254;22;20337;-75
2022/01/17 15:17:07;;;;;;;17.60;10.45;;;;;;;;;;6263898;22;19999;-75
2022/01/17 15:19:34;;;;;;;18.83;10.77;;;;;;;;;;6288971;22;20058;-75
2022/01/17 15:22:00;;;;;;;18.70;10.02;;;;;;;;;;6290248;22;20042;-77
2022/01/17 15:24:29;;;;;;;20.58;10.40;;;;;;;;;;6295522;22;19995;-74
2022/01/17 15:27:00;;;;;;;21.05;10.68;;;;;;;;;;6292467;22;20007;-77
2022/01/17 15:29:32;;;;;;;17.52;10.30;;;;;;;;;;6288470;22;20015;-76
2022/01/17 15:32:01;;;;;;;23.33;13.27;;;;;;;;;;6290650;22;19999;-78